Time;durP1;ratioP1;P1;durP2;ratioP2;P2;SDS_P1;SDS_P2;PMS_P1;PMS_P2;Temp;Humidity;BMP_temperature;BMP_pressure;BME280_temperature;BME280_humidity;BME280_pressure;Samples;Min_cycle;Max_cycle;Signal;HPM_P1;HPM_P2
2024/03/14 00:00:48;;;;;;;16.83;15.83;;;8.90;99.90;;;;;;5006822;28;20197;-80
2024/03/14 00:03:16;;;;;;;17.27;16.17;;;8.90;99.90;;;;;;5024617;28;20389;-79
2024/03/14 00:05:43;;;;;;;16.97;15.93;;;8.90;99.90;;;;;;5001149;28;20208;-80
2024/03/14 00:08:10;;;;;;;16.70;15.70;;;8.90;99.90;;;;;;5025962;28;20197;-80
2024/03/14 00:10:37;;;;;;;16.83;15.73;;;8.90;99.90;;;;;;5020588;28;20616;-81
2024/03/14 00:13:04;;;;;;;16.40;15.40;;;8.80;99.90;;;;;;5027437;28;20192;-80
2024/03/14 00:15:31;;;;;;;16.87;15.77;;;8.80;99.90;;;;;;5005546;28;20200;-80
2024/03/14 00:17:58;;;;;;;16.67;15.67;;;8.70;99.90;;;;;;4997006;28;20220;-80
2024/03/14 00:20:25;;;;;;;16.63;15.63;;;8.70;99.90;;;;;;5011711;28;20262;-80
2024/03/14 00:22:52;;;;;;;17.17;16.00;;;8.60;99.90;;;;;;5000523;28;20214;-80
2024/03/14 00:25:19;;;;;;;17.00;16.00;;;8.60;99.90;;;;;;5025189;28;20200;-80
2024/03/14 00:27:46;;;;;;;17.30;16.10;;;8.50;99.90;;;;;;5009338;28;20200;-80
2024/03/14 00:30:15;;;;;;;17.07;15.97;;;8.50;99.90;;;;;;5010049;28;20206;-79
2024/03/14 00:32:42;;;;;;;16.90;15.83;;;8.40;99.90;;;;;;5021021;28;20219;-80
2024/03/14 00:35:12;;;;;;;17.30;16.20;;;8.40;99.90;;;;;;5013560;28;20230;-80
2024/03/14 00:37:39;;;;;;;17.53;16.33;;;8.30;99.90;;;;;;5007048;28;20603;-79
2024/03/14 00:40:08;;;;;;;17.10;16.10;;;8.30;99.90;;;;;;5015800;28;20192;-79
2024/03/14 00:42:35;;;;;;;16.70;15.70;;;8.30;99.90;;;;;;5008500;28;20597;-79
2024/03/14 00:45:04;;;;;;;17.20;16.10;;;8.30;99.90;;;;;;5000324;28;20200;-79
2024/03/14 00:47:31;;;;;;;16.80;15.80;;;8.20;99.90;;;;;;5026173;28;20195;-79
2024/03/14 00:49:58;;;;;;;18.23;17.03;;;8.20;99.90;;;;;;4999364;28;20212;-80
2024/03/14 00:52:26;;;;;;;16.87;15.87;;;8.10;99.90;;;;;;5012266;28;20322;-80
2024/03/14 00:54:53;;;;;;;17.80;16.40;;;8.10;99.90;;;;;;5012171;28;20192;-80
2024/03/14 00:57:20;;;;;;;16.47;15.47;;;8.10;99.90;;;;;;5018848;28;20640;-80
2024/03/14 00:59:47;;;;;;;17.13;16.03;;;8.10;99.90;;;;;;5027383;28;20636;-80
2024/03/14 01:02:15;;;;;;;17.43;16.33;;;8.10;99.90;;;;;;5023335;28;20295;-80
2024/03/14 01:04:43;;;;;;;18.00;16.90;;;8.10;99.90;;;;;;5010554;28;20205;-79
2024/03/14 01:07:11;;;;;;;18.03;16.90;;;8.10;99.90;;;;;;5027950;28;20192;-79
2024/03/14 01:09:37;;;;;;;16.93;15.93;;;8.10;99.90;;;;;;5011448;28;20201;-80
2024/03/14 01:12:05;;;;;;;16.93;15.90;;;8.00;99.90;;;;;;5014235;28;20211;-80
2024/03/14 01:14:31;;;;;;;17.93;16.70;;;8.00;99.90;;;;;;4999116;28;20204;-79
2024/03/14 01:16:58;;;;;;;17.60;16.50;;;7.90;99.90;;;;;;5029162;28;20224;-79
2024/03/14 01:19:26;;;;;;;18.30;17.10;;;7.90;99.90;;;;;;5020261;28;20649;-80
2024/03/14 01:21:52;;;;;;;17.93;16.83;;;7.90;99.90;;;;;;5012993;28;20327;-79
2024/03/14 01:24:19;;;;;;;18.33;17.13;;;7.90;99.90;;;;;;5010142;28;20200;-80
2024/03/14 01:26:47;;;;;;;17.93;16.83;;;7.90;99.90;;;;;;5012356;28;20193;-80
2024/03/14 01:29:16;;;;;;;18.40;17.20;;;7.90;99.90;;;;;;5014005;28;20659;-80
2024/03/14 01:31:43;;;;;;;18.03;16.93;;;7.80;99.90;;;;;;4996564;28;20221;-79
2024/03/14 01:34:12;;;;;;;18.70;17.43;;;7.70;99.90;;;;;;5030810;28;20261;-80
2024/03/14 01:36:39;;;;;;;19.07;17.77;;;7.70;99.90;;;;;;5000067;28;20304;-80
2024/03/14 01:39:09;;;;;;;18.90;17.60;;;7.60;99.90;;;;;;5015304;28;20196;-80
2024/03/14 01:41:36;;;;;;;19.03;17.70;;;7.60;99.90;;;;;;5020192;28;20216;-80
2024/03/14 01:44:04;;;;;;;19.43;18.03;;;7.60;99.90;;;;;;5016011;28;20191;-79
2024/03/14 01:46:31;;;;;;;19.80;18.40;;;7.60;99.90;;;;;;5024715;28;20664;-79
2024/03/14 01:48:58;;;;;;;19.20;17.90;;;7.60;99.90;;;;;;5015978;28;20197;-79
2024/03/14 01:51:25;;;;;;;18.60;17.40;;;7.60;99.90;;;;;;5012836;28;20235;-80
2024/03/14 01:53:52;;;;;;;19.63;18.13;;;7.50;99.90;;;;;;5032571;28;20203;-80
2024/03/14 01:56:21;;;;;;;19.27;17.97;;;7.50;99.90;;;;;;5023430;28;20204;-79
2024/03/14 01:58:49;;;;;;;19.60;18.20;;;7.50;99.90;;;;;;5016846;28;20214;-79
2024/03/14 02:01:16;;;;;;;19.73;18.43;;;7.50;99.90;;;;;;5024474;28;20302;-80
2024/03/14 02:03:43;;;;;;;19.20;17.90;;;7.50;99.90;;;;;;5003718;28;20254;-80
2024/03/14 02:06:12;;;;;;;19.00;17.80;;;7.40;99.90;;;;;;5001763;28;20196;-80
2024/03/14 02:08:39;;;;;;;18.90;17.70;;;7.40;99.90;;;;;;5021396;28;20746;-79
2024/03/14 02:11:06;;;;;;;19.43;18.13;;;7.50;99.90;;;;;;4996579;28;20251;-79
2024/03/14 02:13:33;;;;;;;18.60;17.40;;;7.40;99.90;;;;;;5022668;28;20214;-79
2024/03/14 02:16:00;;;;;;;19.87;18.47;;;7.40;99.90;;;;;;5005858;28;20668;-79
2024/03/14 02:18:27;;;;;;;19.07;17.77;;;7.40;99.90;;;;;;5010950;28;20247;-80
2024/03/14 02:20:54;;;;;;;18.87;17.57;;;7.40;99.90;;;;;;5003302;28;20270;-80
2024/03/14 02:23:21;;;;;;;19.47;18.10;;;7.40;99.90;;;;;;5021811;28;20196;-80
2024/03/14 02:25:48;;;;;;;18.87;17.63;;;7.40;99.90;;;;;;5000259;28;20226;-80
2024/03/14 02:28:15;;;;;;;18.40;17.30;;;7.50;99.90;;;;;;5026382;28;20543;-80
2024/03/14 02:30:42;;;;;;;18.43;17.23;;;7.50;99.90;;;;;;5028855;28;20234;-80
2024/03/14 02:33:11;;;;;;;19.07;17.77;;;7.50;99.90;;;;;;5022911;28;20208;-79
2024/03/14 02:35:39;;;;;;;18.97;17.67;;;7.50;99.90;;;;;;5001389;28;20196;-79
2024/03/14 02:38:07;;;;;;;19.27;18.03;;;7.50;99.90;;;;;;5023241;28;20309;-80
2024/03/14 02:40:34;;;;;;;20.50;19.00;;;7.50;99.90;;;;;;5018969;28;20271;-79
2024/03/14 02:43:01;;;;;;;20.37;18.97;;;7.50;99.90;;;;;;5024386;28;20205;-79
2024/03/14 02:45:28;;;;;;;21.07;19.63;;;7.50;99.90;;;;;;5005250;28;20196;-80
2024/03/14 02:47:55;;;;;;;20.73;19.33;;;7.50;99.90;;;;;;5027566;28;20194;-79
2024/03/14 02:50:22;;;;;;;21.70;20.20;;;7.60;99.90;;;;;;5006888;28;20275;-80
2024/03/14 02:52:49;;;;;;;22.37;20.87;;;7.50;99.90;;;;;;4993699;28;20464;-80
2024/03/14 02:55:16;;;;;;;21.57;20.07;;;7.50;99.90;;;;;;5027884;28;20691;-79
2024/03/14 02:57:44;;;;;;;21.00;19.60;;;7.50;99.90;;;;;;5028816;28;20213;-80
2024/03/14 03:00:16;;;;;;;20.77;19.30;;;7.50;99.90;;;;;;5045376;28;20196;-79
2024/03/14 03:02:44;;;;;;;20.57;19.17;;;7.40;99.90;;;;;;5014845;28;20221;-80
2024/03/14 03:05:11;;;;;;;21.07;19.57;;;7.40;99.90;;;;;;5039106;28;20195;-79
2024/03/14 03:07:38;;;;;;;20.70;19.40;;;7.40;99.90;;;;;;5003203;28;20776;-80
2024/03/14 03:10:06;;;;;;;20.77;19.37;;;7.40;99.90;;;;;;5014028;28;20209;-79
2024/03/14 03:12:38;;;;;;;20.90;19.60;;;7.30;99.90;;;;;;5026418;28;20342;-80
2024/03/14 03:15:07;;;;;;;20.73;19.33;;;7.20;99.90;;;;;;5031361;28;20196;-79
2024/03/14 03:17:34;;;;;;;20.17;18.77;;;7.20;99.90;;;;;;5026765;28;20250;-80
2024/03/14 03:20:09;;;;;;;19.70;18.30;;;7.20;99.90;;;;;;5032369;28;20197;-79
2024/03/14 03:25:19;;;;;;;18.57;17.37;;;7.10;99.90;;;;;;5004620;28;20250;-80
2024/03/14 03:27:45;;;;;;;19.10;17.80;;;7.00;99.90;;;;;;5005000;28;20262;-80
2024/03/14 03:30:12;;;;;;;20.60;19.23;;;7.00;99.90;;;;;;5037495;28;20276;-79
2024/03/14 03:32:38;;;;;;;20.53;19.23;;;7.00;99.90;;;;;;5001677;28;20227;-80
2024/03/14 03:35:05;;;;;;;20.23;18.93;;;6.90;99.90;;;;;;5008024;28;20214;-80
2024/03/14 03:37:32;;;;;;;21.07;19.67;;;6.90;99.90;;;;;;5003807;28;20224;-80
2024/03/14 03:39:59;;;;;;;19.47;18.17;;;6.80;99.90;;;;;;5001816;28;20212;-80
2024/03/14 03:42:26;;;;;;;21.73;20.23;;;6.80;99.90;;;;;;5003149;28;20232;-79
2024/03/14 03:44:54;;;;;;;21.50;19.70;;;6.80;99.90;;;;;;4984859;28;20275;-80
2024/03/14 03:47:20;;;;;;;21.07;19.57;;;6.70;99.90;;;;;;5019444;28;20565;-80
2024/03/14 03:49:47;;;;;;;21.40;19.90;;;6.70;99.90;;;;;;5016137;28;20192;-79
2024/03/14 03:52:13;;;;;;;20.73;19.33;;;6.70;99.90;;;;;;5023498;28;20470;-80
2024/03/14 03:54:40;;;;;;;21.70;20.30;;;6.60;99.90;;;;;;5013867;28;20820;-80
2024/03/14 03:57:07;;;;;;;23.77;22.00;;;6.60;99.90;;;;;;4997535;28;20201;-81
2024/03/14 03:59:34;;;;;;;22.40;20.90;;;6.60;99.90;;;;;;4982861;28;20211;-81
2024/03/14 04:02:03;;;;;;;22.13;20.63;;;6.60;99.90;;;;;;4987059;28;20275;-81
2024/03/14 04:04:30;;;;;;;21.43;20.03;;;6.60;99.90;;;;;;4995214;28;20230;-81
2024/03/14 04:06:56;;;;;;;22.27;20.80;;;6.50;99.90;;;;;;4985636;28;20216;-81
2024/03/14 04:09:26;;;;;;;22.60;21.00;;;6.50;99.90;;;;;;4975896;28;20675;-81
2024/03/14 04:11:52;;;;;;;21.97;20.53;;;6.50;99.90;;;;;;4991053;28;20239;-80
2024/03/14 04:14:25;;;;;;;21.70;20.27;;;6.40;99.90;;;;;;5032023;28;20576;-83
2024/03/14 04:16:52;;;;;;;22.33;20.87;;;6.40;99.90;;;;;;5010140;28;20235;-80
2024/03/14 04:19:21;;;;;;;21.80;20.23;;;6.40;99.90;;;;;;5011163;28;20220;-81
2024/03/14 04:21:48;;;;;;;23.00;21.40;;;6.40;99.90;;;;;;5022000;28;20218;-81
2024/03/14 04:24:17;;;;;;;21.87;20.47;;;6.40;99.90;;;;;;5013225;28;20208;-80
2024/03/14 04:26:44;;;;;;;22.60;21.10;;;6.50;99.90;;;;;;5007741;28;20196;-81
2024/03/14 04:29:11;;;;;;;22.60;21.10;;;6.50;99.90;;;;;;5000101;28;20235;-80
2024/03/14 04:31:38;;;;;;;23.40;21.70;;;6.50;99.90;;;;;;5012001;28;20229;-79
2024/03/14 04:34:05;;;;;;;22.37;20.87;;;6.50;99.90;;;;;;5003527;28;20219;-81
2024/03/14 04:36:33;;;;;;;23.00;21.50;;;6.50;99.90;;;;;;5013366;28;20203;-79
2024/03/14 04:39:00;;;;;;;23.23;21.63;;;6.60;99.90;;;;;;5021087;28;20212;-78
2024/03/14 04:41:28;;;;;;;22.80;21.20;;;6.60;99.90;;;;;;5012288;28;20208;-78
2024/03/14 04:43:55;;;;;;;23.27;21.57;;;6.60;99.90;;;;;;4995883;28;20694;-80
2024/03/14 04:46:22;;;;;;;23.00;21.40;;;6.70;99.90;;;;;;5016056;28;20239;-79
2024/03/14 04:48:51;;;;;;;23.17;21.53;;;6.70;99.90;;;;;;5017988;28;20209;-78
2024/03/14 04:51:18;;;;;;;22.90;21.30;;;6.70;99.90;;;;;;5043049;28;20240;-78
2024/03/14 04:53:46;;;;;;;22.90;21.40;;;6.70;99.90;;;;;;5023524;28;20227;-78
2024/03/14 04:56:13;;;;;;;23.23;21.57;;;6.70;99.90;;;;;;5000595;28;20207;-79
2024/03/14 04:58:41;;;;;;;24.17;22.47;;;6.60;99.90;;;;;;5024664;28;20239;-79
2024/03/14 05:01:08;;;;;;;23.13;21.43;;;6.60;99.90;;;;;;5007072;28;20683;-79
2024/03/14 05:03:35;;;;;;;22.83;21.27;;;6.60;99.90;;;;;;5012113;28;20667;-78
2024/03/14 05:06:03;;;;;;;22.73;21.23;;;6.60;99.90;;;;;;5006122;28;20199;-79
2024/03/14 05:08:30;;;;;;;23.03;21.33;;;6.60;99.90;;;;;;5013850;28;20196;-79
2024/03/14 05:10:57;;;;;;;22.93;21.23;;;6.60;99.90;;;;;;5006833;28;20307;-79
2024/03/14 05:13:24;;;;;;;24.87;22.80;;;6.60;99.90;;;;;;5016638;28;20196;-79
2024/03/14 05:15:51;;;;;;;25.70;23.70;;;6.60;99.90;;;;;;5011227;28;20564;-79
2024/03/14 05:18:18;;;;;;;23.57;21.87;;;6.60;99.90;;;;;;5021578;28;20289;-79
2024/03/14 05:20:45;;;;;;;22.03;20.53;;;6.60;99.90;;;;;;5031361;28;20195;-77
2024/03/14 05:23:12;;;;;;;23.47;21.67;;;6.60;99.90;;;;;;5021672;28;20208;-79
2024/03/14 05:25:39;;;;;;;21.40;19.70;;;6.50;99.90;;;;;;4990402;28;20202;-79
2024/03/14 05:28:07;;;;;;;23.63;21.93;;;6.50;99.90;;;;;;5007727;28;20200;-78
2024/03/14 05:30:33;;;;;;;22.73;21.10;;;6.50;99.90;;;;;;4993754;28;20200;-79
2024/03/14 05:33:00;;;;;;;22.67;21.07;;;6.50;99.90;;;;;;5003815;28;20218;-79
2024/03/14 05:35:28;;;;;;;23.20;21.60;;;6.50;99.90;;;;;;4997780;28;20226;-79
2024/03/14 05:37:55;;;;;;;23.63;22.03;;;6.50;99.90;;;;;;5033728;28;20218;-78
2024/03/14 05:40:21;;;;;;;24.07;22.37;;;6.50;99.90;;;;;;5002981;28;20243;-79
2024/03/14 05:42:52;;;;;;;24.10;22.30;;;6.50;99.90;;;;;;5016638;28;20215;-79
2024/03/14 05:45:19;;;;;;;23.10;21.50;;;6.50;99.90;;;;;;5006911;28;20700;-79
2024/03/14 05:47:46;;;;;;;24.27;22.47;;;6.50;99.90;;;;;;5007134;28;20249;-79
2024/03/14 05:50:13;;;;;;;23.63;22.03;;;6.50;99.90;;;;;;5008163;28;20265;-79
2024/03/14 05:52:40;;;;;;;23.73;22.03;;;6.50;99.90;;;;;;5000308;28;20255;-79
2024/03/14 05:55:09;;;;;;;23.57;21.87;;;6.50;99.90;;;;;;5037473;28;20658;-78
2024/03/14 05:57:37;;;;;;;23.27;21.57;;;6.60;99.90;;;;;;5019945;28;20258;-78
2024/03/14 06:00:05;;;;;;;23.60;21.80;;;6.60;99.90;;;;;;5025787;28;20231;-79
2024/03/14 06:02:39;;;;;;;22.10;20.60;;;6.60;99.90;;;;;;5017245;28;20223;-79
2024/03/14 06:05:07;;;;;;;22.60;21.00;;;6.50;99.90;;;;;;5011491;28;20559;-79
2024/03/14 06:07:34;;;;;;;22.63;21.03;;;6.50;99.90;;;;;;5034508;28;20248;-79
2024/03/14 06:10:01;;;;;;;22.93;21.20;;;6.60;99.90;;;;;;5012686;28;20600;-78
2024/03/14 06:12:28;;;;;;;23.63;21.93;;;6.60;99.90;;;;;;5013974;28;20697;-79
2024/03/14 06:14:55;;;;;;;22.37;20.67;;;6.50;99.90;;;;;;5003849;28;20255;-78
2024/03/14 06:17:22;;;;;;;22.60;20.90;;;6.60;99.90;;;;;;5029584;28;20250;-78
2024/03/14 06:19:49;;;;;;;22.87;21.07;;;6.60;99.90;;;;;;5014841;28;20222;-79
2024/03/14 06:22:15;;;;;;;24.50;22.70;;;6.80;99.90;;;;;;5017088;28;20236;-79
2024/03/14 06:24:43;;;;;;;22.00;20.20;;;6.80;99.90;;;;;;5034240;28;20207;-78
2024/03/14 06:27:12;;;;;;;22.13;20.50;;;6.90;99.90;;;;;;5020849;28;20219;-79
2024/03/14 06:29:39;;;;;;;22.70;20.90;;;7.00;99.90;;;;;;5031369;28;20200;-79
2024/03/14 06:32:06;;;;;;;21.60;20.00;;;7.20;99.90;;;;;;5015016;28;20594;-79
2024/03/14 06:34:33;;;;;;;21.70;20.30;;;7.20;99.90;;;;;;5048699;28;20227;-79
2024/03/14 06:37:01;;;;;;;24.10;22.13;;;7.30;99.90;;;;;;5019282;28;20204;-79
2024/03/14 06:39:28;;;;;;;23.07;21.27;;;7.40;99.90;;;;;;5015657;28;20221;-79
2024/03/14 06:41:55;;;;;;;26.13;24.13;;;7.50;99.90;;;;;;5007722;28;20602;-79
2024/03/14 06:44:23;;;;;;;23.20;21.63;;;7.50;99.90;;;;;;5031877;28;20200;-80
2024/03/14 06:46:50;;;;;;;21.33;19.83;;;7.50;99.90;;;;;;5029001;28;20204;-80
2024/03/14 06:49:17;;;;;;;12.70;11.60;;;7.50;99.90;;;;;;5017681;28;20669;-79
2024/03/14 06:51:44;;;;;;;9.50;8.30;;;7.50;99.90;;;;;;5027406;28;20615;-79
2024/03/14 06:54:12;;;;;;;8.43;7.43;;;7.50;99.90;;;;;;4999422;28;20204;-79
2024/03/14 06:56:40;;;;;;;7.90;7.20;;;7.60;99.90;;;;;;5009486;28;20283;-79
2024/03/14 06:59:07;;;;;;;7.60;6.87;;;7.60;99.90;;;;;;5019027;28;20302;-79
2024/03/14 07:01:34;;;;;;;7.80;6.97;;;7.50;99.90;;;;;;5041412;28;20211;-79
2024/03/14 07:04:02;;;;;;;7.30;6.60;;;7.60;99.90;;;;;;5004804;28;20285;-79
2024/03/14 07:06:31;;;;;;;7.37;6.67;;;7.60;99.90;;;;;;5026453;28;20267;-79
2024/03/14 07:08:59;;;;;;;9.10;7.37;;;7.60;99.90;;;;;;5006302;28;20250;-79
2024/03/14 07:11:26;;;;;;;9.20;7.80;;;7.60;99.90;;;;;;5013190;28;20220;-79
2024/03/14 07:13:54;;;;;;;8.57;7.77;;;7.70;99.90;;;;;;5023866;28;20223;-79
2024/03/14 07:16:22;;;;;;;8.80;7.90;;;7.80;99.90;;;;;;5023892;28;20206;-79
2024/03/14 07:18:49;;;;;;;8.27;7.47;;;7.90;99.90;;;;;;5025508;28;20694;-79
2024/03/14 07:21:17;;;;;;;8.50;7.60;;;7.90;99.90;;;;;;5018717;28;20710;-79
2024/03/14 07:23:47;;;;;;;7.70;7.00;;;8.00;99.90;;;;;;5027085;28;20196;-79
2024/03/14 07:26:17;;;;;;;12.70;11.70;;;8.10;99.90;;;;;;5021980;28;20287;-79
2024/03/14 07:28:46;;;;;;;18.07;16.77;;;8.30;99.90;;;;;;4999840;28;20638;-79
2024/03/14 07:31:14;;;;;;;11.07;10.07;;;8.40;99.90;;;;;;5007108;28;20234;-80
2024/03/14 07:33:43;;;;;;;18.50;17.30;;;8.50;99.90;;;;;;5007693;28;20597;-79
2024/03/14 07:36:15;;;;;;;18.30;16.93;;;8.60;99.90;;;;;;5012343;28;20204;-79
2024/03/14 07:38:43;;;;;;;11.30;10.40;;;8.80;99.90;;;;;;5009928;28;20224;-79
2024/03/14 07:41:11;;;;;;;11.27;10.37;;;8.90;99.90;;;;;;5005599;28;20771;-79
2024/03/14 07:43:38;;;;;;;8.80;8.00;;;9.10;99.90;;;;;;5007006;28;20205;-79
2024/03/14 07:46:05;;;;;;;10.30;9.57;;;9.30;99.90;;;;;;5008465;28;20265;-79
2024/03/14 07:48:32;;;;;;;11.30;10.40;;;9.40;99.90;;;;;;5003563;28;20247;-79
2024/03/14 07:51:01;;;;;;;6.17;5.67;;;9.60;99.90;;;;;;5013558;28;20647;-80
2024/03/14 07:53:29;;;;;;;8.13;7.53;;;9.80;99.90;;;;;;5012869;28;20236;-79
2024/03/14 07:55:57;;;;;;;11.63;10.83;;;9.90;99.90;;;;;;5005861;28;20200;-79
2024/03/14 07:58:24;;;;;;;8.20;7.60;;;10.00;99.90;;;;;;5028012;28;20200;-80
2024/03/14 08:00:52;;;;;;;13.40;12.60;;;10.10;99.90;;;;;;5010021;28;20232;-79
2024/03/14 08:03:20;;;;;;;11.97;11.27;;;10.30;99.90;;;;;;5028162;28;20199;-82
2024/03/14 08:05:50;;;;;;;7.10;6.53;;;10.40;99.90;;;;;;5030577;28;20195;-81
2024/03/14 08:08:18;;;;;;;11.90;11.10;;;10.50;99.90;;;;;;5020869;28;20203;-79
2024/03/14 08:10:46;;;;;;;8.77;8.10;;;10.70;99.90;;;;;;5003479;28;20205;-79
2024/03/14 08:13:17;;;;;;;8.70;8.10;;;10.80;99.90;;;;;;5016812;28;20754;-79
2024/03/14 08:15:52;;;;;;;8.77;8.10;;;10.90;99.90;;;;;;5015817;28;20684;-78
2024/03/14 08:18:21;;;;;;;10.03;9.07;;;11.00;99.90;;;;;;5003274;28;20200;-78
2024/03/14 08:20:48;;;;;;;9.40;8.60;;;11.00;99.90;;;;;;5000853;28;20195;-78
2024/03/14 08:23:15;;;;;;;15.50;14.40;;;11.10;99.90;;;;;;5006044;28;20292;-79
2024/03/14 08:25:42;;;;;;;7.03;6.33;;;11.10;99.90;;;;;;5034813;28;20638;-78
2024/03/14 08:28:09;;;;;;;9.43;8.70;;;11.10;99.90;;;;;;5024049;28;20686;-80
2024/03/14 08:30:39;;;;;;;13.57;12.57;;;11.30;99.90;;;;;;5017939;28;20204;-78
2024/03/14 08:33:07;;;;;;;10.30;9.37;;;11.40;99.90;;;;;;5012774;28;20581;-78
2024/03/14 08:35:37;;;;;;;6.73;6.03;;;11.60;99.90;;;;;;5017950;28;20200;-79
2024/03/14 08:38:05;;;;;;;9.00;8.20;;;11.70;99.90;;;;;;5032342;28;20199;-79
2024/03/14 08:40:33;;;;;;;8.00;7.20;;;11.80;99.90;;;;;;5004885;28;20216;-78
2024/03/14 08:43:00;;;;;;;11.50;10.60;;;11.80;99.90;;;;;;5015843;28;20269;-79
2024/03/14 08:45:27;;;;;;;13.47;12.57;;;11.90;99.90;;;;;;5029689;28;20254;-79
2024/03/14 08:47:55;;;;;;;15.73;14.53;;;11.90;99.90;;;;;;5017474;28;20287;-79
2024/03/14 08:50:22;;;;;;;15.37;14.20;;;11.80;99.90;;;;;;5006835;28;20200;-78
2024/03/14 08:52:50;;;;;;;14.93;13.83;;;11.90;99.90;;;;;;5022425;28;20291;-79
2024/03/14 08:55:24;;;;;;;13.40;12.30;;;11.90;99.90;;;;;;5025437;28;20203;-78
2024/03/14 08:57:51;;;;;;;11.70;10.80;;;12.10;99.90;;;;;;5016087;28;20648;-78
2024/03/14 09:00:21;;;;;;;15.20;14.00;;;12.40;99.90;;;;;;4998615;28;20221;-79
2024/03/14 09:02:49;;;;;;;8.47;7.77;;;12.70;99.90;;;;;;4998330;28;20220;-79
2024/03/14 09:05:16;;;;;;;7.00;6.30;;;13.10;99.90;;;;;;5018452;28;20204;-78
2024/03/14 09:07:43;;;;;;;7.03;6.33;;;13.40;99.90;;;;;;5019386;28;20197;-79
2024/03/14 09:10:16;;;;;;;12.70;11.70;;;13.60;99.90;;;;;;5034681;28;20186;-78
2024/03/14 09:12:45;;;;;;;12.60;11.70;;;13.90;99.90;;;;;;5022299;28;20456;-79
2024/03/14 09:15:12;;;;;;;11.67;10.60;;;14.20;99.90;;;;;;5019872;28;20202;-79
2024/03/14 09:17:40;;;;;;;7.43;6.73;;;14.40;99.90;;;;;;5008426;28;20273;-79
2024/03/14 09:20:08;;;;;;;10.57;9.77;;;14.40;99.90;;;;;;5009497;28;20229;-79
2024/03/14 09:22:36;;;;;;;11.77;10.97;;;14.40;99.90;;;;;;5026290;28;20302;-79
2024/03/14 09:25:04;;;;;;;12.30;11.40;;;14.40;99.90;;;;;;5002680;28;20232;-78
2024/03/14 09:27:32;;;;;;;10.30;9.60;;;14.60;99.90;;;;;;5039093;28;20592;-79
2024/03/14 09:30:00;;;;;;;7.17;6.47;;;14.70;99.90;;;;;;5001634;28;20198;-79
2024/03/14 09:32:29;;;;;;;5.97;5.43;;;14.80;99.90;;;;;;5022106;28;20707;-79
2024/03/14 09:34:58;;;;;;;5.40;4.90;;;15.00;99.90;;;;;;5006222;28;20224;-79
2024/03/14 09:37:25;;;;;;;10.33;9.57;;;15.10;99.90;;;;;;5007625;28;20263;-78
2024/03/14 09:39:54;;;;;;;7.73;7.03;;;15.00;99.90;;;;;;5031074;28;20230;-78
2024/03/14 09:42:21;;;;;;;9.47;8.67;;;14.80;99.90;;;;;;5008884;28;20356;-79
2024/03/14 09:44:48;;;;;;;6.40;5.80;;;14.90;99.90;;;;;;5023026;28;20200;-78
2024/03/14 09:47:16;;;;;;;7.67;7.03;;;15.00;99.90;;;;;;5012439;28;20289;-79
2024/03/14 09:49:44;;;;;;;6.33;5.73;;;15.00;99.90;;;;;;5026371;28;20216;-79
2024/03/14 09:52:11;;;;;;;6.20;5.60;;;14.90;99.90;;;;;;5000469;28;20617;-78
2024/03/14 09:54:38;;;;;;;7.70;7.00;;;14.90;99.90;;;;;;5002410;28;20225;-79
2024/03/14 09:57:05;;;;;;;7.07;6.40;;;15.10;99.90;;;;;;5007592;28;20291;-79
2024/03/14 09:59:32;;;;;;;9.10;8.40;;;15.20;99.90;;;;;;5021500;28;20205;-78
2024/03/14 10:01:59;;;;;;;8.63;7.93;;;15.20;99.90;;;;;;5018608;28;20212;-79
2024/03/14 10:04:28;;;;;;;9.30;8.60;;;15.20;99.90;;;;;;5025035;28;20196;-79
2024/03/14 10:06:57;;;;;;;8.90;8.10;;;15.20;99.90;;;;;;5009196;28;20188;-80
2024/03/14 10:09:24;;;;;;;6.83;6.23;;;15.40;99.90;;;;;;4997391;28;20231;-79
2024/03/14 10:11:55;;;;;;;5.40;4.90;;;15.30;99.90;;;;;;5009669;28;20215;-80
2024/03/14 10:14:22;;;;;;;5.70;4.73;;;15.10;99.90;;;;;;5010518;28;20737;-80
2024/03/14 10:16:50;;;;;;;5.73;5.23;;;15.10;99.90;;;;;;5015968;28;20201;-80
2024/03/14 10:19:17;;;;;;;5.40;4.90;;;15.20;99.90;;;;;;5006464;28;20201;-79
2024/03/14 10:21:44;;;;;;;7.27;5.27;;;15.20;99.90;;;;;;5015661;28;20271;-79
2024/03/14 10:24:11;;;;;;;5.40;4.70;;;15.20;99.90;;;;;;5016632;28;20199;-80
2024/03/14 10:26:39;;;;;;;5.93;4.97;;;15.10;99.90;;;;;;5014973;28;20200;-79
2024/03/14 10:29:09;;;;;;;5.30;4.80;;;15.10;99.90;;;;;;5006943;28;20327;-79
2024/03/14 10:31:37;;;;;;;5.80;5.20;;;15.00;99.90;;;;;;4979758;28;20248;-79
2024/03/14 10:34:07;;;;;;;5.83;5.20;;;15.00;99.90;;;;;;5009268;28;20260;-79
2024/03/14 10:36:33;;;;;;;4.60;4.20;;;14.80;99.90;;;;;;5026244;28;20237;-79
2024/03/14 10:39:01;;;;;;;5.40;4.87;;;14.90;99.90;;;;;;5011931;28;20609;-79
2024/03/14 10:41:28;;;;;;;5.00;4.50;;;15.00;99.90;;;;;;5011788;28;20226;-79
2024/03/14 10:43:55;;;;;;;5.43;4.93;;;15.00;99.90;;;;;;5044631;28;20200;-80
2024/03/14 10:46:24;;;;;;;5.77;4.43;;;15.10;99.90;;;;;;5020390;28;20274;-79
2024/03/14 10:48:51;;;;;;;5.63;5.00;;;15.30;99.90;;;;;;5032563;28;20200;-80
2024/03/14 10:51:17;;;;;;;5.27;4.30;;;15.40;99.90;;;;;;5017998;28;20278;-80
2024/03/14 10:53:45;;;;;;;6.90;5.37;;;15.60;99.90;;;;;;5025332;28;20192;-80
2024/03/14 10:56:14;;;;;;;5.67;4.80;;;15.40;99.90;;;;;;5019488;28;20202;-80
2024/03/14 10:58:44;;;;;;;5.50;5.00;;;15.40;99.90;;;;;;5028958;28;20297;-80
2024/03/14 11:01:11;;;;;;;5.40;4.90;;;15.40;99.90;;;;;;4999801;28;20677;-80
2024/03/14 11:03:39;;;;;;;5.43;4.90;;;15.30;99.90;;;;;;5008111;28;20287;-79
2024/03/14 11:06:06;;;;;;;4.63;4.23;;;15.40;99.90;;;;;;5014235;28;20256;-80
2024/03/14 11:08:37;;;;;;;4.97;4.33;;;15.60;99.90;;;;;;5015783;28;20199;-80
2024/03/14 11:11:04;;;;;;;6.73;4.63;;;15.80;99.90;;;;;;5004744;28;20219;-79
2024/03/14 11:13:31;;;;;;;5.70;5.10;;;15.70;99.90;;;;;;5022391;28;20250;-80
2024/03/14 11:15:59;;;;;;;6.03;4.60;;;15.80;99.90;;;;;;5013607;28;20200;-80
2024/03/14 11:18:27;;;;;;;4.53;4.13;;;15.80;99.90;;;;;;5031595;28;20208;-80
2024/03/14 11:20:54;;;;;;;6.50;4.80;;;15.80;99.90;;;;;;5002710;28;20232;-80
2024/03/14 11:23:22;;;;;;;4.70;4.10;;;15.90;99.90;;;;;;4994567;28;20217;-80
2024/03/14 11:25:52;;;;;;;4.50;3.90;;;15.90;99.90;;;;;;5023610;28;20203;-80
2024/03/14 11:28:19;;;;;;;5.07;4.57;;;16.20;99.90;;;;;;5006287;28;20211;-80
2024/03/14 11:30:51;;;;;;;4.90;4.50;;;16.30;99.90;;;;;;5042229;28;20192;-80
2024/03/14 11:33:18;;;;;;;4.37;3.97;;;16.40;99.90;;;;;;5025294;28;20201;-80
2024/03/14 11:35:47;;;;;;;9.70;9.00;;;16.70;99.90;;;;;;4996369;28;20211;-79
2024/03/14 11:38:24;;;;;;;9.17;8.47;;;16.70;99.90;;;;;;5002495;28;20204;-80
2024/03/14 11:40:55;;;;;;;11.60;10.90;;;16.80;99.90;;;;;;5025977;28;20714;-80
2024/03/14 11:43:22;;;;;;;11.60;10.90;;;16.80;99.90;;;;;;5003915;28;20205;-80
2024/03/14 11:45:55;;;;;;;11.23;10.53;;;16.80;99.90;;;;;;5014318;28;20581;-80
2024/03/14 11:48:24;;;;;;;11.03;10.43;;;16.80;99.90;;;;;;5026629;28;20206;-80
2024/03/14 11:50:52;;;;;;;11.37;10.67;;;16.90;99.90;;;;;;5029482;28;20704;-80
2024/03/14 11:53:21;;;;;;;11.70;10.90;;;16.90;99.90;;;;;;5003536;28;20233;-80
2024/03/14 11:55:52;;;;;;;11.10;10.30;;;17.00;99.90;;;;;;5000014;28;20211;-84
2024/03/14 11:58:22;;;;;;;11.00;10.40;;;17.00;99.90;;;;;;5029661;28;20201;-85
2024/03/14 12:00:52;;;;;;;11.20;10.40;;;17.10;99.90;;;;;;5021118;28;20273;-84
2024/03/14 12:03:22;;;;;;;10.83;10.10;;;17.20;99.90;;;;;;4999877;28;20689;-86
2024/03/14 12:05:52;;;;;;;10.60;9.70;;;17.30;99.90;;;;;;5011747;28;20221;-85
2024/03/14 12:08:20;;;;;;;10.07;9.47;;;17.30;99.90;;;;;;4996344;28;20679;-86
2024/03/14 12:10:54;;;;;;;10.10;9.40;;;17.30;99.90;;;;;;5008166;28;20848;-86
2024/03/14 12:13:31;;;;;;;10.60;10.00;;;17.30;99.90;;;;;;4986521;28;20230;-85
2024/03/14 12:16:03;;;;;;;10.33;9.73;;;17.30;99.90;;;;;;4999008;28;20253;-85
2024/03/14 12:19:09;;;;;;;10.30;9.70;;;17.20;99.90;;;;;;4986555;28;20205;-86
2024/03/14 12:21:36;;;;;;;10.10;9.50;;;17.10;99.90;;;;;;5017649;28;20291;-77
2024/03/14 12:24:04;;;;;;;10.07;9.37;;;17.20;99.90;;;;;;5030304;28;20209;-85
2024/03/14 12:26:31;;;;;;;10.20;9.60;;;17.30;99.90;;;;;;5009687;28;20295;-81
2024/03/14 12:28:58;;;;;;;11.00;10.30;;;17.30;99.90;;;;;;5033267;28;20196;-81
2024/03/14 12:31:28;;;;;;;3.73;3.10;;;17.30;99.90;;;;;;5014171;28;20259;-85
2024/03/14 12:33:58;;;;;;;3.37;3.07;;;17.20;99.90;;;;;;5017062;28;20193;-85
2024/03/14 12:36:28;;;;;;;3.10;2.90;;;17.30;99.90;;;;;;5023804;28;20205;-86
2024/03/14 12:38:55;;;;;;;3.20;3.00;;;17.20;99.90;;;;;;5014465;28;20195;-83
2024/03/14 12:41:22;;;;;;;3.40;3.20;;;17.10;99.90;;;;;;5018010;28;20250;-83
2024/03/14 12:43:49;;;;;;;3.13;2.83;;;17.00;99.90;;;;;;5004668;28;20202;-83